Uniontown, PA

11:37 PM EDT on March 28, 2015 (GMT -0400)
Morgantown Municipal-Hart | | Change Station
CLOSE
Current Station
Airport
Location: Morgantown,
Elevation: 1247 ft
Nearby Weather Stations

Elev 1247 ft 39.64 °N, 79.92 °W | Updated 44 minutes ago

Clear
Clear
25 °F
Feels Like 19 °F
N
5
Wind Variable Wind from NW

Today
High -- | Low -- °F
--% Chance of Precip.
Yesterday
High -- | Low -- °F
Precip. -- in
7:09 AM 7:38 PM
Waxing Gibbous, 68% visible
Pressure 30.34 in
Visibility 10.0 miles
Clouds Clear
Windchill 19 °F
Dew Point 3 °F
Humidity 39%
Rainfall 0.00 in
Snow Depth Not available.
UV 0 out of 12
Pollen 4.50 out of 12
Air Quality Not available.
Flu Activity Not available.
METAR KMGW 290253Z 32004KT 10SM CLR M04/M16 A3028 RMK AO2 SLP273 T10391161 51027

More Conditions Fewer Conditions

Pressure 30.34 in
Visibility 10.0 miles
Clouds Clear
Windchill 19 °F
Dew Point 3 °F
Humidity 39%
Rainfall 0.00 in
Snow Depth Not available.
UV 0 out of 12
Pollen 4.50 out of 12
Air Quality Not available.
Flu Activity Not available.
METAR KMGW 290253Z 32004KT 10SM CLR M04/M16 A3028 RMK AO2 SLP273 T10391161 51027

More Conditions Fewer Conditions

10-Day Weather Forecast

Almanac

Astronomy

Mar. 28, 2015 Rise Set
Actual Time
Civil Twilight
Nautical Twilight
Astronomical Twilight
Moon
Length of Visible Light
Length of Day
Tomorrow will be .
, % of the Moon is Illuminated

Today's Extremes

State Highs State Lows

Community

WunderPhotos

Upload Photos

1,809,175 photos uploaded!

WunderBlogs® & News

Nearby

Air Quality

  Air Quality AQ Index Pollutant
Not available.

Snow Depth

Station Depth Elevation

Earthquake Activity

City Distance Mag. Time & Date
Minimum magnitude displayed is 2.5.

Coastal Water Temperatures

Place Temperature

Stations

Nearby Weather Stations

Station Location Temp. Windchill Dew Point Humidity Wind Precip. Elev Updated Type